Quitandinha, Brazil
Current Conditions -  °F | °C
As of 3:00 AM on Tuesday 27 Jan 2015 (Local Time) from SBCT Reporting Station
Clear Clear  
Wind Chill: 66°   Ceiling: Unl
Heat Index: 66°   Visibility: 6mi
Dew Point: 64°   Wind: 6mph
Humidity: 94%   Direction: 70°ENE
Pressure: 30.03"   Gusts: NA
Location:  25.87°S, 49.5°W
Report Text: SBCT 270500Z 07005KT CAVOK 19/18 Q1017
Loading
Personal Weather Stations






























Interactive Weather Map New forecast layout! Learn more

10-Day Weather Forecast

Advertisements
Track Severe Weather on mobile